createdAt,value
2022-12-25T00:02:03.192Z,98.20
2022-12-25T00:04:31.786Z,101.60
2022-12-25T00:07:00.323Z,113.50
2022-12-25T00:09:28.980Z,108.10
2022-12-25T00:11:57.574Z,104.20
2022-12-25T00:14:26.150Z,106.50
2022-12-25T00:16:54.655Z,103.30
2022-12-25T00:19:23.280Z,89.30
2022-12-25T00:21:51.817Z,96.30
2022-12-25T00:24:20.310Z,105.10
2022-12-25T00:26:48.820Z,104.60
2022-12-25T00:29:17.498Z,111.10
2022-12-25T00:31:46.229Z,95.50
2022-12-25T00:34:14.907Z,102.90
2022-12-25T00:36:43.352Z,104.10
2022-12-25T00:39:11.914Z,97.80
2022-12-25T00:41:58.810Z,106.00
2022-12-25T00:44:27.472Z,102.70
2022-12-25T00:46:56.260Z,102.30
2022-12-25T00:49:25.006Z,101.70
2022-12-25T00:51:53.774Z,97.00
2022-12-25T00:54:22.260Z,100.40
2022-12-25T00:56:50.880Z,103.90
2022-12-25T00:59:19.552Z,99.00
2022-12-25T01:01:48.296Z,100.50
2022-12-25T01:04:17.180Z,99.60
2022-12-25T01:06:45.777Z,100.00
2022-12-25T01:09:32.590Z,99.00
2022-12-25T01:12:01.104Z,100.90
2022-12-25T01:14:30.212Z,100.00
2022-12-25T01:16:58.763Z,96.60
2022-12-25T01:19:27.350Z,100.80
2022-12-25T01:21:55.840Z,100.70
2022-12-25T01:24:24.317Z,99.40
2022-12-25T01:26:54.688Z,100.70
2022-12-25T01:29:23.349Z,108.70
2022-12-25T01:31:52.025Z,101.40
2022-12-25T01:34:20.859Z,100.60
2022-12-25T01:36:49.519Z,104.80
2022-12-25T01:39:18.204Z,96.90
2022-12-25T01:41:48.282Z,99.10
2022-12-25T01:44:16.764Z,105.30
2022-12-25T01:46:45.553Z,93.50
2022-12-25T01:49:22.977Z,97.70
2022-12-25T01:52:24.398Z,92.80
2022-12-25T01:55:00.215Z,89.10
2022-12-25T01:57:34.111Z,88.20
2022-12-25T02:00:06.192Z,89.60
2022-12-25T02:05:10.881Z,88.90
2022-12-25T02:07:41.470Z,90.10
2022-12-25T02:10:12.396Z,92.10
2022-12-25T02:12:42.429Z,92.00
2022-12-25T02:15:21.507Z,93.00
2022-12-25T02:18:09.806Z,90.50
2022-12-25T02:20:57.171Z,85.80
2022-12-25T02:24:12.508Z,82.00
2022-12-25T02:27:14.573Z,83.30
2022-12-25T02:30:08.835Z,83.30
2022-12-25T02:33:25.193Z,78.40
2022-12-25T02:35:57.243Z,69.60
2022-12-25T02:38:37.530Z,73.30
2022-12-25T02:41:15.941Z,59.30
2022-12-25T02:44:05.503Z,59.20
2022-12-25T02:46:53.062Z,55.30
2022-12-25T02:49:46.193Z,51.90
2022-12-25T02:52:41.559Z,52.30
2022-12-25T02:55:38.256Z,49.40
2022-12-25T02:58:32.218Z,46.40
2022-12-25T03:01:30.754Z,49.50
2022-12-25T03:04:24.868Z,50.40
2022-12-25T03:07:24.184Z,54.80
2022-12-25T03:10:29.412Z,66.70
2022-12-25T03:13:22.882Z,57.50
2022-12-25T03:16:10.306Z,62.90
2022-12-25T03:18:38.972Z,55.40
2022-12-25T03:21:25.873Z,53.90
2022-12-25T03:24:24.072Z,57.30
2022-12-25T03:26:56.376Z,55.50
2022-12-25T03:29:52.804Z,57.30
2022-12-25T03:32:40.067Z,46.70
2022-12-25T03:35:30.506Z,51.40
2022-12-25T03:38:47.106Z,49.00
2022-12-25T03:42:09.160Z,45.50
2022-12-25T03:45:17.294Z,42.40
2022-12-25T03:48:10.666Z,44.20
2022-12-25T03:51:12.597Z,44.30
2022-12-25T03:54:07.167Z,45.60
2022-12-25T03:56:56.584Z,44.10
2022-12-25T03:59:44.274Z,40.00
2022-12-25T04:02:31.893Z,37.20
2022-12-25T04:05:19.008Z,37.30
2022-12-25T04:08:06.019Z,36.00
2022-12-25T04:10:52.998Z,33.50
2022-12-25T04:13:39.834Z,30.90
2022-12-25T04:16:26.980Z,33.30
2022-12-25T04:19:14.127Z,32.00
2022-12-25T04:22:01.048Z,31.10
2022-12-25T04:24:48.012Z,28.80
2022-12-25T04:27:34.961Z,31.50
2022-12-25T04:30:22.461Z,30.50
2022-12-25T04:33:09.469Z,29.60
2022-12-25T04:35:56.488Z,29.70
2022-12-25T04:38:25.128Z,27.00
2022-12-25T04:40:54.167Z,24.70
2022-12-25T04:43:25.243Z,21.90
2022-12-25T04:45:56.177Z,24.10
2022-12-25T04:48:25.790Z,23.50
2022-12-25T04:50:54.684Z,22.30
2022-12-25T04:53:23.514Z,19.70
2022-12-25T04:56:01.620Z,22.00
2022-12-25T04:58:32.545Z,19.10
2022-12-25T05:01:03.358Z,20.90
2022-12-25T05:03:33.087Z,21.70
2022-12-25T05:06:03.415Z,17.90
2022-12-25T05:08:34.825Z,18.50
2022-12-25T05:11:13.319Z,22.50
2022-12-25T05:13:43.083Z,21.20
2022-12-25T05:16:18.365Z,17.10
2022-12-25T05:18:51.068Z,19.30
2022-12-25T05:23:53.343Z,14.30
2022-12-25T05:26:26.329Z,14.60
2022-12-25T05:28:55.570Z,11.50
2022-12-25T05:31:24.254Z,9.40
2022-12-25T05:33:53.453Z,9.20
2022-12-25T05:36:22.136Z,7.80
2022-12-25T05:38:51.286Z,6.30
2022-12-25T05:41:20.236Z,6.80
2022-12-25T05:43:48.803Z,5.60
2022-12-25T05:46:18.109Z,8.10
2022-12-25T05:48:46.732Z,5.70
2022-12-25T05:51:15.784Z,6.40
2022-12-25T05:53:44.421Z,7.80
2022-12-25T05:56:13.262Z,6.80
2022-12-25T05:58:42.251Z,6.10
2022-12-25T06:01:14.803Z,6.70
2022-12-25T06:03:43.721Z,7.10
2022-12-25T06:06:12.877Z,6.00
2022-12-25T06:08:41.646Z,6.70
2022-12-25T06:11:12.678Z,5.80
2022-12-25T06:13:41.626Z,6.80
2022-12-25T06:16:12.591Z,8.40
2022-12-25T06:18:45.790Z,6.00
2022-12-25T06:21:16.349Z,10.20
2022-12-25T06:23:45.357Z,9.60
2022-12-25T06:26:18.145Z,10.00
2022-12-25T06:28:47.296Z,6.20
2022-12-25T06:31:20.661Z,7.00
2022-12-25T06:33:50.080Z,13.50
2022-12-25T06:36:25.909Z,7.00
2022-12-25T06:38:54.521Z,7.50
2022-12-25T06:41:27.436Z,8.10
2022-12-25T06:43:59.521Z,8.60
2022-12-25T06:46:30.548Z,13.70
2022-12-25T06:49:00.633Z,9.50
2022-12-25T06:51:32.315Z,9.80
2022-12-25T06:54:04.570Z,9.20
2022-12-25T06:56:34.582Z,6.20
2022-12-25T06:59:06.732Z,6.20
2022-12-25T07:01:57.565Z,10.10
2022-12-25T07:04:39.102Z,7.10
2022-12-25T07:07:09.857Z,8.70
2022-12-25T07:09:39.379Z,7.60
2022-12-25T07:12:23.660Z,11.40
2022-12-25T07:14:56.178Z,5.80
2022-12-25T07:17:25.057Z,10.20
2022-12-25T07:26:33.888Z,9.80
2022-12-25T07:29:02.522Z,8.40
2022-12-25T07:31:31.139Z,9.10
2022-12-25T07:34:00.254Z,10.40
2022-12-25T07:36:29.311Z,11.90
2022-12-25T07:38:57.978Z,11.90
2022-12-25T07:41:26.630Z,10.60
2022-12-25T07:43:56.593Z,13.90
2022-12-25T07:46:25.157Z,8.70
2022-12-25T07:48:54.017Z,10.30
2022-12-25T07:51:22.596Z,11.40
2022-12-25T07:53:51.157Z,7.70
2022-12-25T07:56:21.033Z,10.10
2022-12-25T07:58:50.365Z,6.70
2022-12-25T08:01:27.075Z,9.40
2022-12-25T08:04:02.586Z,8.10
2022-12-25T08:06:34.974Z,9.90
2022-12-25T08:09:13.081Z,9.20
2022-12-25T08:11:49.489Z,9.30
2022-12-25T08:14:18.059Z,9.20
2022-12-25T08:16:47.253Z,9.50
2022-12-25T08:19:16.066Z,11.20
2022-12-25T08:21:44.613Z,7.80
2022-12-25T08:24:13.287Z,6.80
2022-12-25T08:26:41.816Z,10.20
2022-12-25T08:29:10.348Z,7.40
2022-12-25T08:31:45.741Z,8.30
2022-12-25T08:34:15.657Z,8.90
2022-12-25T08:36:44.228Z,12.00
2022-12-25T08:39:12.920Z,10.80
2022-12-25T08:41:42.043Z,12.00
2022-12-25T08:44:15.189Z,11.30
2022-12-25T08:46:44.074Z,13.20
2022-12-25T08:49:12.913Z,11.50
2022-12-25T08:51:47.093Z,21.10
2022-12-25T08:54:16.497Z,8.20
2022-12-25T08:56:45.407Z,7.60
2022-12-25T08:59:14.236Z,7.20
2022-12-25T09:01:43.162Z,5.00
2022-12-25T09:04:11.998Z,5.70
2022-12-25T09:07:35.705Z,10.80
2022-12-25T09:10:04.908Z,5.50
2022-12-25T09:12:33.783Z,6.60
2022-12-25T09:15:03.118Z,6.00
2022-12-25T09:17:33.185Z,8.30
2022-12-25T09:20:02.024Z,6.40
2022-12-25T09:22:30.955Z,6.40
2022-12-25T09:24:59.826Z,7.30
2022-12-25T09:27:29.973Z,7.60
2022-12-25T09:29:58.821Z,8.10
2022-12-25T09:36:07.399Z,8.30
2022-12-25T09:38:36.507Z,9.30
2022-12-25T09:41:35.691Z,10.50
2022-12-25T09:44:11.736Z,7.60
2022-12-25T09:46:47.789Z,8.60
2022-12-25T09:49:28.049Z,11.10
2022-12-25T09:52:10.569Z,9.80
2022-12-25T09:54:50.721Z,11.80
2022-12-25T09:57:19.423Z,11.00
2022-12-25T09:59:48.189Z,10.00
2022-12-25T10:03:00.238Z,8.10
2022-12-25T10:06:33.327Z,14.80
2022-12-25T10:09:26.288Z,10.90
2022-12-25T10:15:05.251Z,8.80
2022-12-25T10:18:11.065Z,11.40
2022-12-25T10:20:52.561Z,12.50
2022-12-25T10:23:39.663Z,10.90
2022-12-25T10:26:21.691Z,12.70
2022-12-25T10:29:05.052Z,11.60
2022-12-25T10:31:37.516Z,9.50
2022-12-25T10:34:07.246Z,12.10
2022-12-25T10:36:35.996Z,14.70
2022-12-25T10:39:04.643Z,10.50
2022-12-25T10:42:31.323Z,10.40
2022-12-25T10:45:03.320Z,12.10
2022-12-25T10:47:38.252Z,10.10
2022-12-25T10:50:13.270Z,12.60
2022-12-25T10:53:18.876Z,11.10
2022-12-25T10:56:04.499Z,12.90
2022-12-25T10:58:34.768Z,14.20
2022-12-25T11:01:08.374Z,14.60
2022-12-25T11:03:55.235Z,14.30
2022-12-25T11:06:27.940Z,14.00
2022-12-25T11:09:03.836Z,13.70
2022-12-25T11:11:32.605Z,17.30
2022-12-25T11:14:03.042Z,16.00
2022-12-25T11:16:38.825Z,13.00
2022-12-25T11:19:32.931Z,14.10
2022-12-25T11:22:05.265Z,14.40
2022-12-25T11:24:35.285Z,14.60
2022-12-25T11:27:06.717Z,17.40
2022-12-25T11:29:51.060Z,13.80
2022-12-25T11:32:43.877Z,17.80
2022-12-25T11:37:51.761Z,16.00
2022-12-25T11:40:51.652Z,17.20
2022-12-25T11:43:30.747Z,18.10
2022-12-25T11:46:28.872Z,16.00
2022-12-25T11:49:08.456Z,16.90
2022-12-25T11:51:41.570Z,15.80
2022-12-25T11:54:33.241Z,9.70
2022-12-25T11:57:05.644Z,14.50
2022-12-25T11:59:45.105Z,14.30
2022-12-25T12:02:35.037Z,16.50
2022-12-25T12:05:34.412Z,15.80
2022-12-25T12:08:06.274Z,14.90
2022-12-25T12:10:50.271Z,11.50
2022-12-25T12:13:50.715Z,20.40
2022-12-25T12:16:19.546Z,19.30
2022-12-25T12:18:50.594Z,14.90
2022-12-25T12:21:31.298Z,11.20
2022-12-25T12:24:21.960Z,14.00
2022-12-25T12:27:40.764Z,15.80
2022-12-25T12:30:32.852Z,14.70
2022-12-25T12:33:05.946Z,15.50
2022-12-25T12:35:40.589Z,11.20
2022-12-25T12:38:19.948Z,18.00
2022-12-25T12:41:00.937Z,13.40
2022-12-25T12:44:01.374Z,11.10
2022-12-25T12:46:37.778Z,15.90
2022-12-25T12:49:37.716Z,13.40
2022-12-25T12:52:43.884Z,13.90
2022-12-25T12:55:17.068Z,16.60
2022-12-25T12:57:46.171Z,15.30
2022-12-25T13:00:14.828Z,13.40
2022-12-25T13:03:21.608Z,10.40
2022-12-25T13:06:12.032Z,13.00
2022-12-25T13:08:55.452Z,18.40
2022-12-25T13:11:35.666Z,15.10
2022-12-25T13:14:05.269Z,13.20
2022-12-25T13:16:41.438Z,17.20
2022-12-25T13:19:26.136Z,15.80
2022-12-25T13:21:58.681Z,14.10
2022-12-25T13:24:30.966Z,12.60
2022-12-25T13:27:00.699Z,16.20
2022-12-25T13:29:33.659Z,15.30
2022-12-25T13:32:06.286Z,15.90
2022-12-25T13:34:38.802Z,9.90
2022-12-25T13:37:15.511Z,15.30
2022-12-25T13:40:00.228Z,16.00
2022-12-25T13:42:40.108Z,14.90
2022-12-25T13:45:24.276Z,14.90
2022-12-25T13:47:55.459Z,13.10
2022-12-25T13:50:28.464Z,13.00
2022-12-25T13:53:10.189Z,11.40
2022-12-25T13:55:39.062Z,16.30
2022-12-25T13:58:15.882Z,17.70
2022-12-25T14:00:53.054Z,12.00
2022-12-25T14:03:55.279Z,11.20
2022-12-25T14:06:29.444Z,15.20
2022-12-25T14:09:00.101Z,12.50
2022-12-25T14:11:31.487Z,13.90
2022-12-25T14:14:15.361Z,17.50
2022-12-25T14:16:51.241Z,12.10
2022-12-25T14:19:34.605Z,14.10
2022-12-25T14:22:11.697Z,14.90
2022-12-25T14:24:40.694Z,15.20
2022-12-25T14:27:32.663Z,10.90
2022-12-25T14:30:01.369Z,11.20
2022-12-25T14:32:38.401Z,13.50
2022-12-25T14:35:10.271Z,14.00
2022-12-25T14:37:39.292Z,18.10
2022-12-25T14:40:27.438Z,16.30
2022-12-25T14:43:26.741Z,15.30
2022-12-25T14:46:08.240Z,16.70
2022-12-25T14:48:37.113Z,18.80
2022-12-25T14:51:18.485Z,12.10
2022-12-25T14:53:55.369Z,18.20
2022-12-25T14:56:26.923Z,16.60
2022-12-25T14:59:00.452Z,21.40
2022-12-25T15:01:40.135Z,19.90
2022-12-25T15:05:03.335Z,19.00
2022-12-25T15:08:21.963Z,10.80
2022-12-25T15:11:01.043Z,20.80
2022-12-25T15:13:31.743Z,18.50
2022-12-25T15:16:14.418Z,12.30
2022-12-25T15:21:31.145Z,19.30
2022-12-25T15:24:00.906Z,18.20
2022-12-25T15:26:32.843Z,19.30
2022-12-25T15:29:01.561Z,18.30
2022-12-25T15:31:33.299Z,16.20
2022-12-25T15:34:14.286Z,16.10
2022-12-25T15:40:16.327Z,19.20
2022-12-25T15:42:48.332Z,26.60
2022-12-25T15:45:28.091Z,21.00
2022-12-25T15:47:58.276Z,18.30
2022-12-25T15:50:27.068Z,21.50
2022-12-25T15:52:55.934Z,21.90
2022-12-25T15:55:24.879Z,12.80
2022-12-25T15:57:54.928Z,16.20
2022-12-25T16:00:25.967Z,23.20
2022-12-25T16:02:54.937Z,18.90
2022-12-25T16:05:23.828Z,19.70
2022-12-25T16:07:52.531Z,20.60
2022-12-25T16:10:22.833Z,20.10
2022-12-25T16:12:51.364Z,22.20
2022-12-25T16:15:20.055Z,19.90
2022-12-25T16:17:48.635Z,20.50
2022-12-25T16:20:17.829Z,21.80
2022-12-25T16:22:46.508Z,24.60
2022-12-25T16:28:46.759Z,19.10
2022-12-25T16:31:15.760Z,19.60
2022-12-25T16:33:44.544Z,22.70
2022-12-25T16:36:13.157Z,15.10
2022-12-25T16:38:41.818Z,19.30
2022-12-25T16:41:14.090Z,19.30
2022-12-25T16:43:43.405Z,22.70
2022-12-25T16:46:19.579Z,21.30
2022-12-25T16:48:48.602Z,27.30
2022-12-25T16:51:20.679Z,22.90
2022-12-25T16:53:49.452Z,18.10
2022-12-25T16:56:25.634Z,21.60
2022-12-25T16:58:56.993Z,19.00
2022-12-25T17:01:26.066Z,17.20
2022-12-25T17:03:55.057Z,22.00
2022-12-25T17:06:28.450Z,19.40
2022-12-25T17:09:00.120Z,21.50
2022-12-25T17:11:30.358Z,18.90
2022-12-25T17:14:02.816Z,25.20
2022-12-25T17:16:35.507Z,23.40
2022-12-25T17:19:25.063Z,29.10
2022-12-25T17:21:55.176Z,33.10
2022-12-25T17:24:24.318Z,28.70
2022-12-25T17:26:53.114Z,28.10
2022-12-25T17:29:22.856Z,27.30
2022-12-25T17:31:52.496Z,22.70
2022-12-25T17:34:21.701Z,22.60
2022-12-25T17:36:50.424Z,22.10
2022-12-25T17:39:19.314Z,19.50
2022-12-25T17:41:50.887Z,18.10
2022-12-25T17:44:23.160Z,20.30
2022-12-25T17:46:52.141Z,21.60
2022-12-25T17:49:22.321Z,20.30
2022-12-25T17:51:51.120Z,18.70
2022-12-25T17:54:19.805Z,21.50
2022-12-25T17:56:49.632Z,18.90
2022-12-25T17:59:19.027Z,18.30
2022-12-25T18:01:49.323Z,18.20
2022-12-25T18:04:18.362Z,21.30
2022-12-25T18:06:47.398Z,20.00
2022-12-25T18:09:16.257Z,20.00
2022-12-25T18:11:44.897Z,21.20
2022-12-25T18:14:16.450Z,26.30
2022-12-25T18:16:46.400Z,23.90
2022-12-25T18:19:15.934Z,21.30
2022-12-25T18:21:44.830Z,17.90
2022-12-25T18:24:13.734Z,20.90
2022-12-25T18:26:42.333Z,22.40
2022-12-25T18:29:11.000Z,17.30
2022-12-25T18:31:39.771Z,18.80
2022-12-25T18:34:08.389Z,15.60
2022-12-25T18:36:37.636Z,18.90
2022-12-25T18:39:06.381Z,16.80
2022-12-25T18:41:55.018Z,16.60
2022-12-25T18:44:23.767Z,12.40
2022-12-25T18:46:52.396Z,17.80
2022-12-25T18:49:21.215Z,12.60
2022-12-25T18:51:51.100Z,15.30
2022-12-25T18:54:19.915Z,19.00
2022-12-25T18:56:53.558Z,19.30
2022-12-25T18:59:22.458Z,17.20
2022-12-25T19:01:51.375Z,14.50
2022-12-25T19:04:20.115Z,15.20
2022-12-25T19:06:49.893Z,17.70
2022-12-25T19:09:18.475Z,15.70
2022-12-25T19:11:47.169Z,15.30
2022-12-25T19:14:16.264Z,18.10
2022-12-25T19:16:45.342Z,15.10
2022-12-25T19:19:15.012Z,14.80
2022-12-25T19:21:43.671Z,14.60
2022-12-25T19:24:12.281Z,15.00
2022-12-25T19:26:41.213Z,11.10
2022-12-25T19:29:10.053Z,12.70
2022-12-25T19:31:41.897Z,12.60
2022-12-25T19:34:11.294Z,13.80
2022-12-25T19:36:40.082Z,15.30
2022-12-25T19:39:11.707Z,14.00
2022-12-25T19:41:40.485Z,12.90
2022-12-25T19:44:09.234Z,10.30
2022-12-25T19:46:40.940Z,10.70
2022-12-25T19:49:14.035Z,11.10
2022-12-25T19:51:46.357Z,12.40
2022-12-25T19:54:19.030Z,21.90
2022-12-25T19:56:49.219Z,28.10
2022-12-25T19:59:17.903Z,16.30
2022-12-25T20:01:46.614Z,14.60
2022-12-25T20:04:17.340Z,13.90
2022-12-25T20:06:46.275Z,16.20
2022-12-25T20:09:21.587Z,11.40
2022-12-25T20:11:50.755Z,12.90
2022-12-25T20:14:19.870Z,8.90
2022-12-25T20:16:48.680Z,11.20
2022-12-25T20:19:17.383Z,15.20
2022-12-25T20:21:46.520Z,12.70
2022-12-25T20:24:15.121Z,13.70
2022-12-25T20:26:47.670Z,12.00
2022-12-25T20:29:16.833Z,12.50
2022-12-25T20:31:45.519Z,12.70
2022-12-25T20:34:14.281Z,16.40
2022-12-25T20:36:45.489Z,18.80
2022-12-25T20:39:14.245Z,12.00
2022-12-25T20:41:44.368Z,11.90
2022-12-25T20:44:13.394Z,14.30
2022-12-25T20:46:42.159Z,13.00
2022-12-25T20:49:10.655Z,15.50
2022-12-25T20:51:39.887Z,13.50
2022-12-25T20:54:10.514Z,12.70
2022-12-25T21:00:09.534Z,14.60
2022-12-25T21:02:39.173Z,13.40
2022-12-25T21:05:12.252Z,12.50
2022-12-25T21:07:40.858Z,13.40
2022-12-25T21:10:10.237Z,12.00
2022-12-25T21:12:38.746Z,11.40
2022-12-25T21:15:13.286Z,13.10
2022-12-25T21:17:44.209Z,11.90
2022-12-25T21:20:12.715Z,12.00
2022-12-25T21:22:41.499Z,11.80
2022-12-25T21:25:10.613Z,10.40
2022-12-25T21:27:39.225Z,11.80
2022-12-25T21:30:15.017Z,12.20
2022-12-25T21:33:03.252Z,10.70
2022-12-25T21:35:31.956Z,10.00
2022-12-25T21:38:19.927Z,10.80
2022-12-25T21:40:48.442Z,13.80
2022-12-25T21:43:16.993Z,12.00
2022-12-25T21:45:45.695Z,11.50
2022-12-25T21:48:14.396Z,11.80
2022-12-25T21:53:48.139Z,12.20
2022-12-25T21:56:17.485Z,12.60
2022-12-25T21:58:47.314Z,13.70
2022-12-25T22:01:17.708Z,12.30
2022-12-25T22:03:46.478Z,12.50
2022-12-25T22:06:33.640Z,12.00
2022-12-25T22:09:02.680Z,14.90
2022-12-25T22:11:49.858Z,17.80
2022-12-25T22:14:52.128Z,11.90
2022-12-25T22:17:50.876Z,14.10
2022-12-25T22:20:30.921Z,14.30
2022-12-25T22:22:59.535Z,12.40
2022-12-25T22:25:28.340Z,12.80
2022-12-25T22:27:58.134Z,12.50
2022-12-25T22:30:29.238Z,14.70
2022-12-25T22:32:58.512Z,12.90
2022-12-25T22:35:26.996Z,11.20
2022-12-25T22:37:55.595Z,13.90
2022-12-25T22:40:24.934Z,12.60
2022-12-25T22:42:55.699Z,13.10
2022-12-25T22:45:24.837Z,13.30
2022-12-25T22:47:53.448Z,11.80
2022-12-25T22:50:22.110Z,13.10
2022-12-25T22:52:50.704Z,12.50
2022-12-25T22:55:20.363Z,13.40
2022-12-25T22:57:49.242Z,14.20
2022-12-25T23:00:18.149Z,11.70
2022-12-25T23:02:47.116Z,15.20
2022-12-25T23:05:16.004Z,10.10
2022-12-25T23:07:44.743Z,11.40
2022-12-25T23:10:13.356Z,12.30
2022-12-25T23:13:01.224Z,12.20
2022-12-25T23:15:29.821Z,10.10
2022-12-25T23:18:17.401Z,9.90
2022-12-25T23:21:04.762Z,10.00
2022-12-25T23:23:52.235Z,10.00
2022-12-25T23:26:21.561Z,7.50
2022-12-25T23:29:08.359Z,8.20
2022-12-25T23:31:41.478Z,8.10
2022-12-25T23:34:11.415Z,8.20
2022-12-25T23:36:40.041Z,9.70
2022-12-25T23:39:10.478Z,9.20
2022-12-25T23:41:41.828Z,8.90
2022-12-25T23:44:13.346Z,8.10
2022-12-25T23:46:52.695Z,10.30
2022-12-25T23:49:24.192Z,10.20
2022-12-25T23:51:53.927Z,9.90
2022-12-25T23:54:30.113Z,8.30
2022-12-25T23:56:59.857Z,8.50
2022-12-25T23:59:30.946Z,9.10
